sensor_id;sensor_type;location;lat;lon;timestamp;pressure;altitude;pressure_sealevel;temperature;humidity
25560;BME280;13450;49.374;8.584;2024-03-06T00:01:51;100628.00;;;4.70;100.00
25560;BME280;13450;49.374;8.584;2024-03-06T00:04:16;100620.06;;;4.70;100.00
25560;BME280;13450;49.374;8.584;2024-03-06T00:06:41;100632.31;;;4.71;100.00
25560;BME280;13450;49.374;8.584;2024-03-06T00:09:07;100631.47;;;4.70;100.00
25560;BME280;13450;49.374;8.584;2024-03-06T00:11:34;100631.06;;;4.65;100.00
25560;BME280;13450;49.374;8.584;2024-03-06T00:14:02;100641.13;;;4.62;100.00
25560;BME280;13450;49.374;8.584;2024-03-06T00:16:27;100635.28;;;4.58;100.00
25560;BME280;13450;49.374;8.584;2024-03-06T00:18:53;100641.00;;;4.53;100.00
25560;BME280;13450;49.374;8.584;2024-03-06T00:21:18;100645.75;;;4.50;100.00
25560;BME280;13450;49.374;8.584;2024-03-06T00:23:46;100650.19;;;4.49;100.00
25560;BME280;13450;49.374;8.584;2024-03-06T00:26:11;100656.75;;;4.45;100.00
25560;BME280;13450;49.374;8.584;2024-03-06T00:28:38;100654.09;;;4.45;100.00
25560;BME280;13450;49.374;8.584;2024-03-06T00:31:04;100655.94;;;4.44;100.00
25560;BME280;13450;49.374;8.584;2024-03-06T00:33:30;100659.41;;;4.45;100.00
25560;BME280;13450;49.374;8.584;2024-03-06T00:35:55;100665.41;;;4.47;100.00
25560;BME280;13450;49.374;8.584;2024-03-06T00:38:20;100669.75;;;4.48;100.00
25560;BME280;13450;49.374;8.584;2024-03-06T00:40:46;100675.03;;;4.48;100.00
25560;BME280;13450;49.374;8.584;2024-03-06T00:43:12;100673.38;;;4.47;100.00
25560;BME280;13450;49.374;8.584;2024-03-06T00:45:37;100678.38;;;4.50;100.00
25560;BME280;13450;49.374;8.584;2024-03-06T00:48:02;100673.06;;;4.50;100.00
25560;BME280;13450;49.374;8.584;2024-03-06T00:50:30;100672.81;;;4.53;100.00
25560;BME280;13450;49.374;8.584;2024-03-06T00:52:56;100669.47;;;4.51;100.00
25560;BME280;13450;49.374;8.584;2024-03-06T00:55:21;100663.31;;;4.51;100.00
25560;BME280;13450;49.374;8.584;2024-03-06T00:57:46;100661.66;;;4.50;100.00
25560;BME280;13450;49.374;8.584;2024-03-06T01:00:12;100661.50;;;4.51;100.00
25560;BME280;13450;49.374;8.584;2024-03-06T01:02:38;100667.78;;;4.50;100.00
25560;BME280;13450;49.374;8.584;2024-03-06T01:05:03;100670.56;;;4.49;100.00
25560;BME280;13450;49.374;8.584;2024-03-06T01:07:29;100668.34;;;4.44;100.00
25560;BME280;13450;49.374;8.584;2024-03-06T01:09:58;100671.00;;;4.44;100.00
25560;BME280;13450;49.374;8.584;2024-03-06T01:12:26;100664.16;;;4.41;100.00
25560;BME280;13450;49.374;8.584;2024-03-06T01:14:51;100658.56;;;4.35;100.00
25560;BME280;13450;49.374;8.584;2024-03-06T01:17:17;100658.16;;;4.29;100.00
25560;BME280;13450;49.374;8.584;2024-03-06T01:19:42;100651.88;;;4.30;100.00
25560;BME280;13450;49.374;8.584;2024-03-06T01:22:11;100661.06;;;4.26;100.00
25560;BME280;13450;49.374;8.584;2024-03-06T01:24:38;100666.38;;;4.26;100.00
25560;BME280;13450;49.374;8.584;2024-03-06T01:27:04;100660.38;;;4.24;100.00
25560;BME280;13450;49.374;8.584;2024-03-06T01:29:29;100664.72;;;4.25;100.00
25560;BME280;13450;49.374;8.584;2024-03-06T01:31:54;100668.16;;;4.26;100.00
25560;BME280;13450;49.374;8.584;2024-03-06T01:34:20;100659.00;;;4.20;100.00
25560;BME280;13450;49.374;8.584;2024-03-06T01:36:45;100668.34;;;4.24;100.00
25560;BME280;13450;49.374;8.584;2024-03-06T01:39:11;100663.03;;;4.24;100.00
25560;BME280;13450;49.374;8.584;2024-03-06T01:41:45;100663.03;;;4.24;100.00
25560;BME280;13450;49.374;8.584;2024-03-06T01:44:16;100664.41;;;4.28;100.00
25560;BME280;13450;49.374;8.584;2024-03-06T01:46:45;100668.03;;;4.27;100.00
25560;BME280;13450;49.374;8.584;2024-03-06T01:49:13;100660.94;;;4.28;100.00
25560;BME280;13450;49.374;8.584;2024-03-06T01:51:45;100659.28;;;4.27;100.00
25560;BME280;13450;49.374;8.584;2024-03-06T01:54:13;100653.81;;;4.28;100.00
25560;BME280;13450;49.374;8.584;2024-03-06T01:56:44;100657.44;;;4.27;100.00
25560;BME280;13450;49.374;8.584;2024-03-06T01:59:11;100661.06;;;4.26;100.00
25560;BME280;13450;49.374;8.584;2024-03-06T02:01:37;100659.69;;;4.22;100.00
25560;BME280;13450;49.374;8.584;2024-03-06T02:04:02;100662.75;;;4.17;100.00
25560;BME280;13450;49.374;8.584;2024-03-06T02:06:28;100668.88;;;4.18;100.00
25560;BME280;13450;49.374;8.584;2024-03-06T02:08:55;100663.31;;;4.21;100.00
25560;BME280;13450;49.374;8.584;2024-03-06T02:11:23;100661.34;;;4.23;100.00
25560;BME280;13450;49.374;8.584;2024-03-06T02:13:49;100671.94;;;4.23;100.00
25560;BME280;13450;49.374;8.584;2024-03-06T02:16:15;100663.31;;;4.21;100.00
25560;BME280;13450;49.374;8.584;2024-03-06T02:18:51;100669.59;;;4.20;100.00
25560;BME280;13450;49.374;8.584;2024-03-06T02:21:17;100668.59;;;4.21;100.00
25560;BME280;13450;49.374;8.584;2024-03-06T02:23:45;100679.19;;;4.21;100.00
25560;BME280;13450;49.374;8.584;2024-03-06T02:26:10;100669.28;;;4.23;100.00
25560;BME280;13450;49.374;8.584;2024-03-06T02:28:35;100666.50;;;4.25;100.00
25560;BME280;13450;49.374;8.584;2024-03-06T02:31:01;100672.78;;;4.24;100.00
25560;BME280;13450;49.374;8.584;2024-03-06T02:33:29;100668.59;;;4.21;100.00
25560;BME280;13450;49.374;8.584;2024-03-06T02:35:54;100673.63;;;4.24;100.00
25560;BME280;13450;49.374;8.584;2024-03-06T02:38:20;100675.31;;;4.25;100.00
25560;BME280;13450;49.374;8.584;2024-03-06T02:40:45;100675.31;;;4.25;100.00
25560;BME280;13450;49.374;8.584;2024-03-06T02:43:10;100678.63;;;4.27;100.00
25560;BME280;13450;49.374;8.584;2024-03-06T02:45:35;100681.28;;;4.27;100.00
25560;BME280;13450;49.374;8.584;2024-03-06T02:48:03;100680.59;;;4.25;100.00
25560;BME280;13450;49.374;8.584;2024-03-06T02:50:29;100675.69;;;4.21;100.00
25560;BME280;13450;49.374;8.584;2024-03-06T02:52:54;100675.03;;;4.18;100.00
25560;BME280;13450;49.374;8.584;2024-03-06T02:55:21;100673.19;;;4.19;100.00
25560;BME280;13450;49.374;8.584;2024-03-06T02:57:47;100672.50;;;4.17;100.00
25560;BME280;13450;49.374;8.584;2024-03-06T03:00:13;100672.63;;;4.15;100.00
25560;BME280;13450;49.374;8.584;2024-03-06T03:02:39;100665.25;;;4.09;100.00
25560;BME280;13450;49.374;8.584;2024-03-06T03:05:05;100673.63;;;4.14;100.00
25560;BME280;13450;49.374;8.584;2024-03-06T03:07:30;100674.44;;;4.15;100.00
25560;BME280;13450;49.374;8.584;2024-03-06T03:09:58;100674.44;;;4.15;100.00
25560;BME280;13450;49.374;8.584;2024-03-06T03:12:23;100670.13;;;4.14;100.00
25560;BME280;13450;49.374;8.584;2024-03-06T03:14:49;100674.72;;;4.12;100.00
25560;BME280;13450;49.374;8.584;2024-03-06T03:17:15;100674.00;;;4.10;100.00
25560;BME280;13450;49.374;8.584;2024-03-06T03:19:40;100675.00;;;4.09;100.00
25560;BME280;13450;49.374;8.584;2024-03-06T03:22:06;100675.97;;;4.08;100.00
25560;BME280;13450;49.374;8.584;2024-03-06T03:24:34;100683.63;;;4.01;100.00
25560;BME280;13450;49.374;8.584;2024-03-06T03:26:59;100677.19;;;3.93;100.00
25560;BME280;13450;49.374;8.584;2024-03-06T03:29:27;100681.91;;;3.90;100.00
25560;BME280;13450;49.374;8.584;2024-03-06T03:31:52;100679.81;;;3.84;100.00
25560;BME280;13450;49.374;8.584;2024-03-06T03:34:18;100682.47;;;3.84;100.00
25560;BME280;13450;49.374;8.584;2024-03-06T03:36:43;100682.31;;;3.85;100.00
25560;BME280;13450;49.374;8.584;2024-03-06T03:39:11;100690.25;;;3.85;100.00
25560;BME280;13450;49.374;8.584;2024-03-06T03:41:48;100686.06;;;3.83;100.00
25560;BME280;13450;49.374;8.584;2024-03-06T03:44:17;100684.41;;;3.82;100.00
25560;BME280;13450;49.374;8.584;2024-03-06T03:46:44;100690.69;;;3.81;100.00
25560;BME280;13450;49.374;8.584;2024-03-06T03:49:10;100691.25;;;3.84;100.00
25560;BME280;13450;49.374;8.584;2024-03-06T03:51:36;100694.44;;;3.88;100.00
25560;BME280;13450;49.374;8.584;2024-03-06T03:54:02;100699.47;;;3.91;100.00
25560;BME280;13450;49.374;8.584;2024-03-06T03:56:27;100698.38;;;3.93;100.00
25560;BME280;13450;49.374;8.584;2024-03-06T03:58:53;100697.13;;;3.98;100.00
25560;BME280;13450;49.374;8.584;2024-03-06T04:01:21;100700.63;;;3.98;100.00
25560;BME280;13450;49.374;8.584;2024-03-06T04:03:46;100702.56;;;3.96;100.00
25560;BME280;13450;49.374;8.584;2024-03-06T04:06:11;100697.25;;;3.96;100.00
25560;BME280;13450;49.374;8.584;2024-03-06T04:08:36;100702.84;;;3.93;100.00
25560;BME280;13450;49.374;8.584;2024-03-06T04:11:06;100713.69;;;3.90;100.00
25560;BME280;13450;49.374;8.584;2024-03-06T04:13:35;100710.03;;;3.81;100.00
25560;BME280;13450;49.374;8.584;2024-03-06T04:16:03;100712.22;;;3.66;100.00
25560;BME280;13450;49.374;8.584;2024-03-06T04:18:32;100710.75;;;3.52;100.00
25560;BME280;13450;49.374;8.584;2024-03-06T04:21:06;100716.59;;;3.46;100.00
25560;BME280;13450;49.374;8.584;2024-03-06T04:23:32;100721.16;;;3.44;100.00
25560;BME280;13450;49.374;8.584;2024-03-06T04:25:59;100712.97;;;3.47;100.00
25560;BME280;13450;49.374;8.584;2024-03-06T04:28:27;100727.03;;;3.47;100.00
25560;BME280;13450;49.374;8.584;2024-03-06T04:30:52;100729.16;;;3.53;100.00
25560;BME280;13450;49.374;8.584;2024-03-06T04:33:21;100719.00;;;3.59;100.00
25560;BME280;13450;49.374;8.584;2024-03-06T04:35:46;100725.84;;;3.61;100.00
25560;BME280;13450;49.374;8.584;2024-03-06T04:38:12;100731.56;;;3.66;100.00
25560;BME280;13450;49.374;8.584;2024-03-06T04:40:37;100736.06;;;3.66;100.00
25560;BME280;13450;49.374;8.584;2024-03-06T04:43:02;100732.16;;;3.70;100.00
25560;BME280;13450;49.374;8.584;2024-03-06T04:45:28;100737.91;;;3.75;100.00
25560;BME280;13450;49.374;8.584;2024-03-06T04:47:54;100746.53;;;3.77;100.00
25560;BME280;13450;49.374;8.584;2024-03-06T04:50:21;100742.09;;;3.78;100.00
25560;BME280;13450;49.374;8.584;2024-03-06T04:52:47;100747.25;;;3.79;100.00
25560;BME280;13450;49.374;8.584;2024-03-06T04:55:13;100754.91;;;3.83;100.00
25560;BME280;13450;49.374;8.584;2024-03-06T04:57:43;100750.34;;;3.85;100.00
25560;BME280;13450;49.374;8.584;2024-03-06T05:00:10;100750.22;;;3.86;100.00
25560;BME280;13450;49.374;8.584;2024-03-06T05:02:36;100750.06;;;3.88;100.00
25560;BME280;13450;49.374;8.584;2024-03-06T05:05:03;100749.09;;;3.89;100.00
25560;BME280;13450;49.374;8.584;2024-03-06T05:07:29;100758.72;;;3.90;100.00
25560;BME280;13450;49.374;8.584;2024-03-06T05:09:55;100762.59;;;3.86;100.00
25560;BME280;13450;49.374;8.584;2024-03-06T05:12:22;100758.00;;;3.88;100.00
25560;BME280;13450;49.374;8.584;2024-03-06T05:14:48;100761.38;;;3.90;100.00
25560;BME280;13450;49.374;8.584;2024-03-06T05:17:13;100759.41;;;3.92;100.00
25560;BME280;13450;49.374;8.584;2024-03-06T05:19:41;100769.06;;;3.93;100.00
25560;BME280;13450;49.374;8.584;2024-03-06T05:22:06;100771.69;;;3.93;100.00
25560;BME280;13450;49.374;8.584;2024-03-06T05:24:32;100770.59;;;3.96;100.00
25560;BME280;13450;49.374;8.584;2024-03-06T05:26:59;100775.03;;;3.95;100.00
25560;BME280;13450;49.374;8.584;2024-03-06T05:29:25;100774.78;;;3.98;100.00
25560;BME280;13450;49.374;8.584;2024-03-06T05:31:51;100776.72;;;3.96;100.00
25560;BME280;13450;49.374;8.584;2024-03-06T05:34:16;100786.47;;;3.96;100.00
25560;BME280;13450;49.374;8.584;2024-03-06T05:36:41;100786.75;;;3.92;100.00
25560;BME280;13450;49.374;8.584;2024-03-06T05:39:09;100792.28;;;3.89;100.00
25560;BME280;13450;49.374;8.584;2024-03-06T05:41:38;100793.41;;;3.87;100.00
25560;BME280;13450;49.374;8.584;2024-03-06T05:44:07;100800.66;;;3.85;100.00
25560;BME280;13450;49.374;8.584;2024-03-06T05:46:33;100806.75;;;3.85;100.00
25560;BME280;13450;49.374;8.584;2024-03-06T05:48:58;100810.25;;;3.86;100.00
25560;BME280;13450;49.374;8.584;2024-03-06T05:51:27;100819.44;;;3.82;100.00
25560;BME280;13450;49.374;8.584;2024-03-06T05:53:53;100825.72;;;3.81;100.00
25560;BME280;13450;49.374;8.584;2024-03-06T05:56:18;100826.69;;;3.79;100.00
25560;BME280;13450;49.374;8.584;2024-03-06T05:58:44;100825.72;;;3.81;100.00
25560;BME280;13450;49.374;8.584;2024-03-06T06:01:15;100832.94;;;3.78;100.00
25560;BME280;13450;49.374;8.584;2024-03-06T06:03:44;100839.63;;;3.83;100.00
25560;BME280;13450;49.374;8.584;2024-03-06T06:06:09;100846.31;;;3.77;100.00
25560;BME280;13450;49.374;8.584;2024-03-06T06:08:37;100848.25;;;3.75;100.00
25560;BME280;13450;49.374;8.584;2024-03-06T06:11:02;100844.06;;;3.72;100.00
25560;BME280;13450;49.374;8.584;2024-03-06T06:13:30;100852.97;;;3.71;100.00
25560;BME280;13450;49.374;8.584;2024-03-06T06:15:57;100849.34;;;3.72;100.00
25560;BME280;13450;49.374;8.584;2024-03-06T06:18:25;100856.06;;;3.76;100.00
25560;BME280;13450;49.374;8.584;2024-03-06T06:20:51;100859.28;;;3.80;100.00
25560;BME280;13450;49.374;8.584;2024-03-06T06:23:16;100857.91;;;3.86;100.00
25560;BME280;13450;49.374;8.584;2024-03-06T06:25:41;100865.34;;;3.92;100.00
25560;BME280;13450;49.374;8.584;2024-03-06T06:28:09;100862.31;;;3.97;100.00
25560;BME280;13450;49.374;8.584;2024-03-06T06:30:35;100869.03;;;4.01;100.00
25560;BME280;13450;49.374;8.584;2024-03-06T06:33:01;100873.22;;;4.03;100.00
25560;BME280;13450;49.374;8.584;2024-03-06T06:35:29;100878.25;;;4.07;100.00
25560;BME280;13450;49.374;8.584;2024-03-06T06:37:54;100874.38;;;4.11;100.00
25560;BME280;13450;49.374;8.584;2024-03-06T06:40:22;100883.28;;;4.10;100.00
25560;BME280;13450;49.374;8.584;2024-03-06T06:42:48;100875.75;;;4.15;100.00
25560;BME280;13450;49.374;8.584;2024-03-06T06:45:20;100876.06;;;4.22;100.00
25560;BME280;13450;49.374;8.584;2024-03-06T06:47:46;100885.19;;;4.29;100.00
25560;BME280;13450;49.374;8.584;2024-03-06T06:50:12;100887.28;;;4.35;100.00
25560;BME280;13450;49.374;8.584;2024-03-06T06:52:38;100882.03;;;4.45;100.00
25560;BME280;13450;49.374;8.584;2024-03-06T06:55:04;100888.75;;;4.49;100.00
25560;BME280;13450;49.374;8.584;2024-03-06T06:57:33;100894.91;;;4.60;100.00
25560;BME280;13450;49.374;8.584;2024-03-06T06:59:59;100889.34;;;4.63;100.00
25560;BME280;13450;49.374;8.584;2024-03-06T07:02:25;100890.06;;;4.75;100.00
25560;BME280;13450;49.374;8.584;2024-03-06T07:04:51;100894.00;;;4.80;100.00
25560;BME280;13450;49.374;8.584;2024-03-06T07:07:16;100905.03;;;4.86;100.00
25560;BME280;13450;49.374;8.584;2024-03-06T07:09:43;100897.38;;;4.92;100.00
25560;BME280;13450;49.374;8.584;2024-03-06T07:12:08;100905.88;;;4.96;100.00
25560;BME280;13450;49.374;8.584;2024-03-06T07:14:34;100903.25;;;5.06;100.00
25560;BME280;13450;49.374;8.584;2024-03-06T07:17:02;100912.50;;;5.12;100.00
25560;BME280;13450;49.374;8.584;2024-03-06T07:19:30;100904.28;;;5.15;100.00
25560;BME280;13450;49.374;8.584;2024-03-06T07:21:57;100915.31;;;5.20;100.00
25560;BME280;13450;49.374;8.584;2024-03-06T07:24:25;100916.00;;;5.22;100.00
25560;BME280;13450;49.374;8.584;2024-03-06T07:26:50;100909.56;;;5.24;100.00
25560;BME280;13450;49.374;8.584;2024-03-06T07:29:16;100907.91;;;5.33;100.00
25560;BME280;13450;49.374;8.584;2024-03-06T07:31:41;100912.91;;;5.36;100.00
25560;BME280;13450;49.374;8.584;2024-03-06T07:34:07;100908.59;;;5.45;100.00
25560;BME280;13450;49.374;8.584;2024-03-06T07:36:34;100903.44;;;5.54;100.00
25560;BME280;13450;49.374;8.584;2024-03-06T07:39:00;100914.34;;;5.60;100.00
25560;BME280;13450;49.374;8.584;2024-03-06T07:41:26;100909.84;;;5.71;100.00
25560;BME280;13450;49.374;8.584;2024-03-06T07:43:51;100910.66;;;5.81;100.00
25560;BME280;13450;49.374;8.584;2024-03-06T07:46:16;100920.56;;;5.99;100.00
25560;BME280;13450;49.374;8.584;2024-03-06T07:48:42;100922.84;;;6.04;100.00
25560;BME280;13450;49.374;8.584;2024-03-06T07:51:09;100918.47;;;6.12;100.00
25560;BME280;13450;49.374;8.584;2024-03-06T07:53:37;100921.25;;;6.21;100.00
25560;BME280;13450;49.374;8.584;2024-03-06T07:56:05;100927.22;;;6.33;100.00
25560;BME280;13450;49.374;8.584;2024-03-06T07:58:32;100934.88;;;6.46;100.00
25560;BME280;13450;49.374;8.584;2024-03-06T08:00:58;100942.94;;;6.54;100.00
25560;BME280;13450;49.374;8.584;2024-03-06T08:03:24;100947.41;;;6.63;100.00
25560;BME280;13450;49.374;8.584;2024-03-06T08:05:51;100950.75;;;6.65;100.00
25560;BME280;13450;49.374;8.584;2024-03-06T08:08:17;100948.47;;;6.71;100.00
25560;BME280;13450;49.374;8.584;2024-03-06T08:10:43;100944.25;;;6.78;100.00
25560;BME280;13450;49.374;8.584;2024-03-06T08:13:12;100949.38;;;6.89;100.00
25560;BME280;13450;49.374;8.584;2024-03-06T08:15:38;100947.91;;;7.05;100.00
25560;BME280;13450;49.374;8.584;2024-03-06T08:18:05;100949.66;;;7.14;100.00
25560;BME280;13450;49.374;8.584;2024-03-06T08:20:33;100957.06;;;7.39;100.00
25560;BME280;13450;49.374;8.584;2024-03-06T08:22:58;100954.75;;;7.62;100.00
25560;BME280;13450;49.374;8.584;2024-03-06T08:25:24;100958.19;;;7.72;100.00
25560;BME280;13450;49.374;8.584;2024-03-06T08:27:52;100954.63;;;7.82;100.00
25560;BME280;13450;49.374;8.584;2024-03-06T08:30:17;100954.03;;;7.96;100.00
25560;BME280;13450;49.374;8.584;2024-03-06T08:32:44;100952.47;;;8.12;100.00
25560;BME280;13450;49.374;8.584;2024-03-06T08:35:11;100954.78;;;8.07;100.00
25560;BME280;13450;49.374;8.584;2024-03-06T08:37:40;100960.13;;;8.07;100.00
25560;BME280;13450;49.374;8.584;2024-03-06T08:40:07;100952.13;;;8.07;100.00
25560;BME280;13450;49.374;8.584;2024-03-06T08:42:33;100959.75;;;8.02;100.00
25560;BME280;13450;49.374;8.584;2024-03-06T08:44:58;100959.53;;;7.95;100.00
25560;BME280;13450;49.374;8.584;2024-03-06T08:47:24;100957.34;;;7.90;100.00
25560;BME280;13450;49.374;8.584;2024-03-06T08:49:49;100956.41;;;8.00;100.00
25560;BME280;13450;49.374;8.584;2024-03-06T08:52:15;100951.66;;;8.11;100.00
25560;BME280;13450;49.374;8.584;2024-03-06T08:54:40;100962.69;;;8.17;100.00
25560;BME280;13450;49.374;8.584;2024-03-06T08:57:07;100971.53;;;8.17;100.00
25560;BME280;13450;49.374;8.584;2024-03-06T08:59:35;100967.56;;;8.21;100.00
25560;BME280;13450;49.374;8.584;2024-03-06T09:02:15;100971.63;;;8.34;100.00
25560;BME280;13450;49.374;8.584;2024-03-06T09:04:44;100974.53;;;8.49;100.00
25560;BME280;13450;49.374;8.584;2024-03-06T09:07:10;100978.44;;;8.55;100.00
25560;BME280;13450;49.374;8.584;2024-03-06T09:09:36;100976.44;;;8.57;100.00
25560;BME280;13450;49.374;8.584;2024-03-06T09:12:08;100971.72;;;8.50;100.00
25560;BME280;13450;49.374;8.584;2024-03-06T09:14:36;100975.84;;;8.63;100.00
25560;BME280;13450;49.374;8.584;2024-03-06T09:17:02;100970.19;;;8.74;100.00
25560;BME280;13450;49.374;8.584;2024-03-06T09:19:28;100980.91;;;8.83;100.00
25560;BME280;13450;49.374;8.584;2024-03-06T09:21:53;100974.56;;;8.75;100.00
25560;BME280;13450;49.374;8.584;2024-03-06T09:24:23;100978.00;;;8.68;100.00
25560;BME280;13450;49.374;8.584;2024-03-06T09:26:48;100978.53;;;8.71;100.00
25560;BME280;13450;49.374;8.584;2024-03-06T09:29:14;100975.06;;;8.79;100.00
25560;BME280;13450;49.374;8.584;2024-03-06T09:31:39;100979.63;;;8.95;100.00
25560;BME280;13450;49.374;8.584;2024-03-06T09:34:05;100986.00;;;9.02;100.00
25560;BME280;13450;49.374;8.584;2024-03-06T09:36:30;100983.16;;;9.04;100.00
25560;BME280;13450;49.374;8.584;2024-03-06T09:38:58;100981.22;;;9.14;100.00
25560;BME280;13450;49.374;8.584;2024-03-06T09:41:23;100988.06;;;9.34;100.00
25560;BME280;13450;49.374;8.584;2024-03-06T09:43:49;100997.13;;;9.49;100.00
25560;BME280;13450;49.374;8.584;2024-03-06T09:46:14;100999.81;;;9.58;100.00
25560;BME280;13450;49.374;8.584;2024-03-06T09:48:46;100991.47;;;9.52;100.00
25560;BME280;13450;49.374;8.584;2024-03-06T09:51:11;100989.50;;;9.71;100.00
25560;BME280;13450;49.374;8.584;2024-03-06T09:53:37;100992.81;;;9.81;100.00
25560;BME280;13450;49.374;8.584;2024-03-06T09:56:04;100990.50;;;9.70;100.00
25560;BME280;13450;49.374;8.584;2024-03-06T09:58:35;100985.50;;;9.84;100.00
25560;BME280;13450;49.374;8.584;2024-03-06T10:01:01;100991.66;;;9.76;100.00
25560;BME280;13450;49.374;8.584;2024-03-06T10:03:28;100985.97;;;9.79;100.00
25560;BME280;13450;49.374;8.584;2024-03-06T10:05:54;100992.84;;;9.98;100.00
25560;BME280;13450;49.374;8.584;2024-03-06T10:08:23;100991.16;;;10.05;100.00
25560;BME280;13450;49.374;8.584;2024-03-06T10:10:54;100992.81;;;10.23;100.00
25560;BME280;13450;49.374;8.584;2024-03-06T10:13:25;100999.16;;;10.30;100.00
25560;BME280;13450;49.374;8.584;2024-03-06T10:15:57;100993.91;;;10.62;100.00
25560;BME280;13450;49.374;8.584;2024-03-06T10:18:26;100995.91;;;10.68;100.00
25560;BME280;13450;49.374;8.584;2024-03-06T10:20:57;100989.88;;;10.75;100.00
25560;BME280;13450;49.374;8.584;2024-03-06T10:23:23;100990.44;;;10.53;100.00
25560;BME280;13450;49.374;8.584;2024-03-06T10:25:50;101002.09;;;10.69;100.00
25560;BME280;13450;49.374;8.584;2024-03-06T10:28:20;100991.97;;;10.96;100.00
25560;BME280;13450;49.374;8.584;2024-03-06T10:30:51;100996.06;;;11.15;100.00
25560;BME280;13450;49.374;8.584;2024-03-06T10:33:18;101001.03;;;11.27;100.00
25560;BME280;13450;49.374;8.584;2024-03-06T10:35:45;101003.84;;;10.93;100.00
25560;BME280;13450;49.374;8.584;2024-03-06T10:38:12;101006.19;;;10.96;100.00
25560;BME280;13450;49.374;8.584;2024-03-06T10:40:39;100995.47;;;10.96;100.00
25560;BME280;13450;49.374;8.584;2024-03-06T10:43:06;100998.63;;;11.00;100.00
25560;BME280;13450;49.374;8.584;2024-03-06T10:45:50;100998.22;;;11.20;100.00
25560;BME280;13450;49.374;8.584;2024-03-06T10:48:19;100999.28;;;11.10;100.00
25560;BME280;13450;49.374;8.584;2024-03-06T10:50:46;100996.78;;;11.32;100.00
25560;BME280;13450;49.374;8.584;2024-03-06T10:53:17;101002.09;;;11.41;100.00
25560;BME280;13450;49.374;8.584;2024-03-06T10:55:43;101004.69;;;11.57;100.00
25560;BME280;13450;49.374;8.584;2024-03-06T10:58:10;101007.84;;;11.84;100.00
25560;BME280;13450;49.374;8.584;2024-03-06T11:00:40;101008.84;;;12.60;100.00
25560;BME280;13450;49.374;8.584;2024-03-06T11:03:09;101006.97;;;13.06;100.00
25560;BME280;13450;49.374;8.584;2024-03-06T11:05:38;101011.41;;;13.14;100.00
25560;BME280;13450;49.374;8.584;2024-03-06T11:08:07;101007.13;;;13.19;100.00
25560;BME280;13450;49.374;8.584;2024-03-06T11:10:33;101009.69;;;12.76;100.00
25560;BME280;13450;49.374;8.584;2024-03-06T11:13:00;101008.19;;;12.58;100.00
25560;BME280;13450;49.374;8.584;2024-03-06T11:15:26;101005.16;;;12.61;100.00
25560;BME280;13450;49.374;8.584;2024-03-06T11:17:54;101005.16;;;12.76;100.00
25560;BME280;13450;49.374;8.584;2024-03-06T11:20:21;101006.72;;;12.71;100.00
25560;BME280;13450;49.374;8.584;2024-03-06T11:28:11;101004.78;;;13.31;100.00
25560;BME280;13450;49.374;8.584;2024-03-06T11:30:46;101005.16;;;13.28;100.00
25560;BME280;13450;49.374;8.584;2024-03-06T11:33:14;101006.72;;;13.01;100.00
25560;BME280;13450;49.374;8.584;2024-03-06T11:36:14;101007.50;;;13.16;100.00
25560;BME280;13450;49.374;8.584;2024-03-06T11:38:41;101011.53;;;13.42;100.00
25560;BME280;13450;49.374;8.584;2024-03-06T11:41:06;101005.22;;;12.98;100.00
25560;BME280;13450;49.374;8.584;2024-03-06T11:43:42;101002.19;;;12.86;100.00
25560;BME280;13450;49.374;8.584;2024-03-06T11:46:11;100997.78;;;13.15;100.00
25560;BME280;13450;49.374;8.584;2024-03-06T11:48:37;100995.34;;;13.20;100.00
25560;BME280;13450;49.374;8.584;2024-03-06T11:51:02;100999.19;;;13.11;100.00
25560;BME280;13450;49.374;8.584;2024-03-06T11:53:33;101003.63;;;13.56;100.00
25560;BME280;13450;49.374;8.584;2024-03-06T11:55:59;101002.94;;;14.19;97.57
25560;BME280;13450;49.374;8.584;2024-03-06T11:58:25;100995.25;;;14.80;94.45
25560;BME280;13450;49.374;8.584;2024-03-06T12:00:51;100993.94;;;14.69;89.52
25560;BME280;13450;49.374;8.584;2024-03-06T12:03:18;100991.81;;;14.58;97.08
25560;BME280;13450;49.374;8.584;2024-03-06T12:05:44;100999.72;;;14.31;91.12
25560;BME280;13450;49.374;8.584;2024-03-06T12:08:10;100997.25;;;14.07;92.70
25560;BME280;13450;49.374;8.584;2024-03-06T12:10:37;101001.97;;;13.77;96.08
25560;BME280;13450;49.374;8.584;2024-03-06T12:13:03;101002.22;;;13.60;98.57
25560;BME280;13450;49.374;8.584;2024-03-06T12:15:29;101003.25;;;13.59;100.00
25560;BME280;13450;49.374;8.584;2024-03-06T12:17:57;101000.47;;;13.15;100.00
25560;BME280;13450;49.374;8.584;2024-03-06T12:20:24;100996.22;;;13.06;100.00
25560;BME280;13450;49.374;8.584;2024-03-06T12:22:51;100989.41;;;12.58;100.00
25560;BME280;13450;49.374;8.584;2024-03-06T12:25:21;100989.50;;;12.35;100.00
25560;BME280;13450;49.374;8.584;2024-03-06T12:27:49;101000.69;;;12.38;100.00
25560;BME280;13450;49.374;8.584;2024-03-06T12:30:19;100993.06;;;12.27;100.00
25560;BME280;13450;49.374;8.584;2024-03-06T12:32:56;100988.66;;;11.96;100.00
25560;BME280;13450;49.374;8.584;2024-03-06T12:35:25;100990.75;;;11.85;100.00
25560;BME280;13450;49.374;8.584;2024-03-06T12:37:53;100993.19;;;11.95;100.00
25560;BME280;13450;49.374;8.584;2024-03-06T12:40:21;100997.75;;;11.86;100.00
25560;BME280;13450;49.374;8.584;2024-03-06T12:42:46;100999.06;;;11.90;100.00
25560;BME280;13450;49.374;8.584;2024-03-06T12:45:12;100989.69;;;11.71;100.00
25560;BME280;13450;49.374;8.584;2024-03-06T12:47:42;100996.78;;;11.64;100.00
25560;BME280;13450;49.374;8.584;2024-03-06T12:50:08;100989.97;;;11.53;100.00
25560;BME280;13450;49.374;8.584;2024-03-06T12:52:34;100987.00;;;11.48;100.00